Time;durP1;ratioP1;P1;durP2;ratioP2;P2;SDS_P1;SDS_P2;PMS_P1;PMS_P2;Temp;Humidity;BMP_temperature;BMP_pressure;BME280_temperature;BME280_humidity;BME280_pressure;Samples;Min_cycle;Max_cycle;Signal;HPM_P1;HPM_P2
2022/10/16 00:00:26;;;;;;;5.00;1.73;;;;;;;12.31;100.00;101026.13;5204166;28;20032;-70
2022/10/16 00:02:57;;;;;;;5.03;1.83;;;;;;;12.26;100.00;101022.28;5203811;28;20507;-71
2022/10/16 00:05:28;;;;;;;2.88;1.60;;;;;;;12.24;100.00;101018.91;5203239;28;20108;-71
2022/10/16 00:07:58;;;;;;;8.70;2.17;;;;;;;12.21;100.00;101019.28;5202954;28;20509;-71
2022/10/16 00:10:29;;;;;;;6.90;1.85;;;;;;;12.21;100.00;101011.19;5202460;28;20025;-70
2022/10/16 00:13:00;;;;;;;4.70;2.15;;;;;;;12.19;100.00;101005.97;5203795;28;20364;-71
2022/10/16 00:15:36;;;;;;;7.57;1.80;;;;;;;12.16;100.00;101011.72;5203897;28;20099;-70
2022/10/16 00:18:06;;;;;;;6.93;2.20;;;;;;;12.12;100.00;101015.75;5201833;28;20025;-70
2022/10/16 00:20:37;;;;;;;5.13;1.92;;;;;;;12.09;100.00;101016.09;5203841;28;20376;-70
2022/10/16 00:23:08;;;;;;;5.15;1.95;;;;;;;12.04;100.00;101016.59;5203269;28;20382;-71
2022/10/16 00:25:38;;;;;;;5.97;2.08;;;;;;;12.01;100.00;101018.81;5202877;28;20038;-71
2022/10/16 00:28:09;;;;;;;6.00;1.92;;;;;;;11.98;100.00;101016.44;5201603;28;20032;-69
2022/10/16 00:30:39;;;;;;;3.00;1.60;;;;;;;11.95;100.00;101031.09;5203246;28;20029;-70
2022/10/16 00:33:12;;;;;;;4.82;1.70;;;;;;;11.92;100.00;101029.56;5203848;28;20036;-70
2022/10/16 00:35:43;;;;;;;3.63;1.55;;;;;;;11.88;100.00;101025.53;5202930;28;20025;-70
2022/10/16 00:38:14;;;;;;;3.83;1.67;;;;;;;11.88;100.00;101024.69;5202565;28;20029;-70
2022/10/16 00:40:44;;;;;;;4.35;1.58;;;;;;;11.82;100.00;101020.84;5203486;28;20025;-71
2022/10/16 00:43:41;;;;;;;6.05;1.75;;;;;;;11.83;100.00;101032.44;5203567;28;20032;-70
2022/10/16 00:46:18;;;;;;;5.68;1.70;;;;;;;11.80;100.00;101028.22;5205836;28;20017;-70
2022/10/16 00:48:55;;;;;;;4.38;1.60;;;;;;;11.78;100.00;101026.69;5205650;28;20026;-70
2022/10/16 00:51:34;;;;;;;4.43;1.70;;;;;;;11.78;100.00;101021.31;5204699;28;20132;-70
2022/10/16 00:54:11;;;;;;;7.15;1.88;;;;;;;11.78;100.00;101014.09;5191383;28;20472;-70
2022/10/16 00:56:44;;;;;;;3.38;1.35;;;;;;;11.79;100.00;101012.25;5203256;28;20021;-70
2022/10/16 00:59:30;;;;;;;2.65;1.48;;;;;;;11.79;100.00;101023.84;5203359;28;20048;-71
2022/10/16 01:02:02;;;;;;;4.25;1.60;;;;;;;11.82;100.00;101022.69;5203361;28;20037;-70
2022/10/16 01:04:47;;;;;;;6.95;1.40;;;;;;;11.82;100.00;101017.31;5203495;28;20033;-70
2022/10/16 01:07:28;;;;;;;7.82;1.48;;;;;;;11.84;100.00;101017.97;5203012;28;20102;-70
2022/10/16 01:10:01;;;;;;;2.33;1.23;;;;;;;11.86;100.00;101024.03;5202028;28;20487;-70
2022/10/16 01:12:48;;;;;;;1.50;0.95;;;;;;;11.87;100.00;101039.16;5203342;28;20025;-70
2022/10/16 01:15:28;;;;;;;6.15;1.60;;;;;;;11.84;100.00;101039.50;5201977;28;20026;-70
2022/10/16 01:18:17;;;;;;;4.10;1.02;;;;;;;11.89;100.00;101029.06;5202489;28;20049;-70
2022/10/16 01:20:52;;;;;;;3.95;1.17;;;;;;;11.92;100.00;101034.13;5187487;28;20022;-70
2022/10/16 01:23:47;;;;;;;5.35;1.73;;;;;;;11.93;100.00;101033.09;5187447;28;20022;-70
2022/10/16 01:26:44;;;;;;;2.63;1.00;;;;;;;12.03;100.00;101043.66;5187874;28;20033;-70
2022/10/16 01:29:28;;;;;;;3.03;1.02;;;;;;;12.07;100.00;101036.94;5187255;28;20503;-70
2022/10/16 01:32:10;;;;;;;3.90;0.98;;;;;;;12.04;100.00;101029.22;5203739;28;20025;-70
2022/10/16 01:35:14;;;;;;;2.13;1.20;;;;;;;11.95;100.00;101027.53;5207137;28;20115;-70
2022/10/16 01:37:56;;;;;;;9.57;1.33;;;;;;;11.88;100.00;101030.09;5206103;28;20404;-70
2022/10/16 01:40:29;;;;;;;2.30;1.20;;;;;;;11.85;100.00;101028.59;5205573;28;20018;-69
2022/10/16 01:43:08;;;;;;;6.63;1.15;;;;;;;11.80;100.00;101030.06;5206919;28;20029;-70
2022/10/16 01:45:41;;;;;;;3.58;1.20;;;;;;;11.72;100.00;101033.59;5206764;28;20491;-69
2022/10/16 01:48:16;;;;;;;4.40;1.42;;;;;;;11.73;100.00;101024.53;5206418;28;20055;-70
2022/10/16 01:51:03;;;;;;;2.65;1.20;;;;;;;11.75;100.00;101022.53;5206392;28;20116;-70
2022/10/16 01:53:35;;;;;;;2.78;1.65;;;;;;;11.75;100.00;101029.75;5206521;28;20056;-70
2022/10/16 01:56:10;;;;;;;2.83;1.20;;;;;;;11.71;100.00;101023.84;5206798;28;20025;-70
2022/10/16 01:58:47;;;;;;;2.22;1.20;;;;;;;11.71;100.00;101023.84;5205649;28;20020;-69
2022/10/16 02:01:20;;;;;;;6.00;1.33;;;;;;;11.70;100.00;101027.56;5206772;28;20018;-70
2022/10/16 02:03:56;;;;;;;1.95;1.20;;;;;;;11.73;100.00;101018.31;5187551;28;20025;-71
2022/10/16 02:06:26;;;;;;;;;;;;;;;11.72;100.00;101028.22;5188624;28;20458;-70
2022/10/16 02:08:58;;;;;;;2.15;1.30;;;;;;;11.70;100.00;101024.00;5197885;28;19967;-70
2022/10/16 02:11:31;;;;;;;3.50;1.30;;;;;;;11.73;100.00;101032.59;5189851;28;20545;-71
2022/10/16 02:14:07;;;;;;;1.77;1.13;;;;;;;11.73;100.00;101031.75;5196488;28;20025;-70
2022/10/16 02:16:45;;;;;;;6.00;1.27;;;;;;;11.70;100.00;101035.63;5187114;28;20833;-70
2022/10/16 02:19:20;;;;;;;3.83;1.17;;;;;;;11.68;100.00;101038.47;5186473;28;20037;-70
2022/10/16 02:21:56;;;;;;;3.67;1.10;;;;;;;11.70;100.00;101040.13;5186092;28;20030;-70
2022/10/16 02:24:26;;;;;;;;;;;;;;;11.71;100.00;101037.31;5188386;28;20025;-70
2022/10/16 02:27:10;;;;;;;8.05;1.40;;;;;;;11.74;100.00;101044.16;5196077;28;19909;-70
2022/10/16 02:29:48;;;;;;;5.85;1.30;;;;;;;11.71;100.00;101039.16;5185863;28;20394;-70
2022/10/16 02:32:23;;;;;;;1.70;1.20;;;;;;;11.68;100.00;101034.94;5202701;28;20048;-70
2022/10/16 02:34:55;;;;;;;4.50;1.20;;;;;;;11.72;100.00;101032.75;5206328;28;20052;-70
2022/10/16 02:37:27;;;;;;;2.90;1.13;;;;;;;11.74;100.00;101041.47;5205051;28;20025;-70
2022/10/16 02:39:58;;;;;;;2.15;1.17;;;;;;;11.77;100.00;101042.00;5205750;28;20021;-71
2022/10/16 02:42:34;;;;;;;2.80;1.30;;;;;;;11.76;100.00;101039.47;5205503;28;20025;-70
2022/10/16 02:45:06;;;;;;;1.48;0.95;;;;;;;11.78;100.00;101045.50;5205708;28;20029;-70
2022/10/16 02:47:40;;;;;;;1.50;1.08;;;;;;;11.77;100.00;101033.94;5205034;28;20057;-70
2022/10/16 02:50:10;;;;;;;3.20;1.10;;;;;;;11.74;100.00;101036.94;5205497;28;20052;-70
2022/10/16 02:52:41;;;;;;;5.93;1.40;;;;;;;11.73;100.00;101046.03;5205682;28;20522;-70
2022/10/16 02:55:11;;;;;;;6.20;1.30;;;;;;;11.72;100.00;101040.81;5205132;28;20021;-70
2022/10/16 02:57:42;;;;;;;3.47;1.17;;;;;;;11.70;100.00;101057.13;5204929;28;20506;-71
2022/10/16 03:00:15;;;;;;;4.03;1.50;;;;;;;11.69;100.00;101050.03;5205510;28;20077;-70
2022/10/16 03:02:46;;;;;;;6.22;1.30;;;;;;;11.73;100.00;101055.94;5204250;28;20384;-71
2022/10/16 03:05:17;;;;;;;4.03;1.50;;;;;;;11.74;100.00;101061.13;5205435;28;20026;-70
2022/10/16 03:07:48;;;;;;;4.45;1.50;;;;;;;11.77;100.00;101066.19;5206846;28;20403;-70
2022/10/16 03:10:21;;;;;;;4.80;1.30;;;;;;;11.78;100.00;101056.25;5205555;28;20030;-70
2022/10/16 03:12:51;;;;;;;2.22;1.33;;;;;;;11.83;100.00;101053.94;5205029;28;20507;-71
2022/10/16 03:15:22;;;;;;;3.72;1.27;;;;;;;11.85;100.00;101055.47;5205240;28;20056;-70
2022/10/16 03:17:53;;;;;;;7.72;1.58;;;;;;;11.87;100.00;101061.50;5204007;28;20418;-70
2022/10/16 03:20:25;;;;;;;6.18;1.20;;;;;;;11.86;100.00;101075.13;5204993;28;20027;-70
2022/10/16 03:22:58;;;;;;;13.02;1.92;;;;;;;11.82;100.00;101077.28;5204718;28;20100;-70
2022/10/16 03:25:28;;;;;;;3.25;1.67;;;;;;;11.80;100.00;101075.78;5205235;28;20029;-71
2022/10/16 03:27:59;;;;;;;3.95;1.40;;;;;;;11.80;100.00;101079.28;5203051;28;20414;-71
2022/10/16 03:30:30;;;;;;;2.03;1.40;;;;;;;11.82;100.00;101079.16;5203814;28;20079;-71
2022/10/16 03:33:00;;;;;;;3.00;1.70;;;;;;;11.84;100.00;101083.34;5204650;28;20497;-70
2022/10/16 03:35:32;;;;;;;8.02;1.80;;;;;;;11.85;100.00;101082.34;5204638;28;20048;-71
2022/10/16 03:38:03;;;;;;;3.60;1.55;;;;;;;11.88;100.00;101083.84;5203668;28;20021;-71
2022/10/16 03:40:33;;;;;;;5.15;1.63;;;;;;;11.89;100.00;101082.81;5204651;28;20434;-70
2022/10/16 03:43:04;;;;;;;9.13;1.60;;;;;;;11.87;100.00;101085.69;5204226;28;20494;-70
2022/10/16 03:45:34;;;;;;;2.13;1.48;;;;;;;11.88;100.00;101082.00;5204543;28;20025;-70
2022/10/16 03:48:06;;;;;;;3.38;1.40;;;;;;;11.87;100.00;101071.41;5203764;28;20510;-70
2022/10/16 03:50:36;;;;;;;4.57;1.80;;;;;;;11.88;100.00;101067.72;5203077;28;20030;-70
2022/10/16 03:53:07;;;;;;;6.00;2.00;;;;;;;11.88;100.00;101073.94;5204426;28;20475;-70
2022/10/16 03:55:37;;;;;;;4.55;1.85;;;;;;;11.90;100.00;101079.16;5204189;28;20021;-70
2022/10/16 03:58:08;;;;;;;3.95;1.52;;;;;;;11.90;100.00;101080.00;5203512;28;20017;-69
2022/10/16 04:00:46;;;;;;;4.35;1.80;;;;;;;11.90;100.00;101089.91;5204206;28;20021;-70
2022/10/16 04:03:18;;;;;;;4.85;1.95;;;;;;;11.91;100.00;101091.59;5202923;28;20025;-71
2022/10/16 04:05:49;;;;;;;3.25;1.90;;;;;;;11.91;100.00;101092.41;5204004;28;20064;-70
2022/10/16 04:08:20;;;;;;;4.40;1.60;;;;;;;11.91;100.00;101097.78;5203010;28;20033;-70
2022/10/16 04:10:50;;;;;;;4.65;1.70;;;;;;;11.92;100.00;101112.06;5204119;28;20029;-70
2022/10/16 04:13:21;;;;;;;6.18;2.20;;;;;;;11.91;100.00;101108.56;5203989;28;20483;-70
2022/10/16 04:15:52;;;;;;;2.72;1.52;;;;;;;11.89;100.00;101112.41;5203956;28;20025;-71
2022/10/16 04:18:23;;;;;;;2.83;1.75;;;;;;;11.88;100.00;101108.03;5202949;28;20032;-70
2022/10/16 04:20:54;;;;;;;3.25;1.65;;;;;;;11.85;100.00;101116.47;5203779;28;20394;-70
2022/10/16 04:23:27;;;;;;;4.20;2.05;;;;;;;11.83;100.00;101116.59;5203906;28;20033;-71
2022/10/16 04:25:59;;;;;;;4.22;1.63;;;;;;;11.80;100.00;101116.94;5203711;28;20095;-71
2022/10/16 04:28:29;;;;;;;7.18;1.77;;;;;;;11.76;100.00;101115.56;5203037;28;20216;-70
2022/10/16 04:31:05;;;;;;;4.13;1.80;;;;;;;11.74;100.00;101127.50;5202077;28;20026;-70
2022/10/16 04:33:36;;;;;;;4.63;1.73;;;;;;;11.72;100.00;101130.34;5202697;28;20029;-71
2022/10/16 04:36:06;;;;;;;6.70;1.60;;;;;;;11.72;100.00;101130.34;5203645;28;20372;-71
2022/10/16 04:38:37;;;;;;;6.97;1.60;;;;;;;11.72;100.00;101132.19;5202799;28;20024;-70
2022/10/16 04:41:08;;;;;;;4.45;1.60;;;;;;;11.70;100.00;101139.56;5203537;28;20375;-71
2022/10/16 04:43:38;;;;;;;8.02;1.83;;;;;;;11.66;100.00;101147.16;5203147;28;20033;-70
2022/10/16 04:46:10;;;;;;;4.65;1.80;;;;;;;11.62;100.00;101152.00;5203589;28;20369;-71
2022/10/16 04:48:40;;;;;;;11.05;2.55;;;;;;;11.62;100.00;101154.69;5202642;28;20025;-70
2022/10/16 04:51:10;;;;;;;6.85;2.00;;;;;;;11.63;100.00;101152.84;5203404;28;20160;-70
2022/10/16 04:53:41;;;;;;;4.90;1.90;;;;;;;11.60;100.00;101164.78;5202965;28;20017;-71
2022/10/16 04:56:11;;;;;;;4.13;2.28;;;;;;;11.56;100.00;101158.06;5203324;28;20033;-69
2022/10/16 04:58:42;;;;;;;7.38;1.80;;;;;;;11.51;100.00;101159.56;5202611;28;20017;-70
2022/10/16 05:01:12;;;;;;;6.88;2.53;;;;;;;11.46;100.00;101157.34;5203521;28;20390;-70
2022/10/16 05:03:43;;;;;;;5.32;1.90;;;;;;;11.45;100.00;101155.69;5203237;28;20491;-70
2022/10/16 05:06:14;;;;;;;5.13;2.28;;;;;;;11.44;100.00;101159.34;5203250;28;20395;-70
2022/10/16 05:08:44;;;;;;;4.43;2.20;;;;;;;11.47;100.00;101160.88;5202390;28;20033;-71
2022/10/16 05:11:14;;;;;;;11.77;3.42;;;;;;;11.43;100.00;101163.03;5203313;28;20026;-70
2022/10/16 05:13:45;;;;;;;8.02;3.38;;;;;;;11.44;100.00;101159.34;5203177;28;20052;-70
2022/10/16 05:16:16;;;;;;;8.63;4.57;;;;;;;11.45;100.00;101163.75;5203424;28;20022;-71
2022/10/16 05:18:46;;;;;;;9.05;4.63;;;;;;;11.46;100.00;101165.41;5202306;28;20017;-70
2022/10/16 05:21:17;;;;;;;10.57;4.38;;;;;;;11.43;100.00;101167.59;5203029;28;20395;-71
2022/10/16 05:23:47;;;;;;;9.57;3.70;;;;;;;11.44;100.00;101167.41;5203201;28;20120;-71
2022/10/16 05:26:18;;;;;;;12.98;3.28;;;;;;;11.43;100.00;101179.16;5203183;28;20032;-70
2022/10/16 05:28:49;;;;;;;5.78;3.13;;;;;;;11.42;100.00;101177.50;5202369;28;20025;-71
2022/10/16 05:31:20;;;;;;;6.05;2.78;;;;;;;11.40;100.00;101184.88;5202423;28;20040;-71
2022/10/16 05:33:50;;;;;;;6.53;2.55;;;;;;;11.36;100.00;101191.56;5202979;28;20025;-71
2022/10/16 05:36:21;;;;;;;8.23;2.63;;;;;;;11.41;100.00;101200.00;5203233;28;20029;-71
2022/10/16 05:38:51;;;;;;;3.95;2.13;;;;;;;11.45;100.00;101208.56;5201956;28;20491;-71
2022/10/16 05:41:25;;;;;;;4.93;2.15;;;;;;;11.49;100.00;101196.47;5203165;28;20026;-71
2022/10/16 05:43:55;;;;;;;5.63;2.58;;;;;;;11.48;100.00;101197.47;5202532;28;20029;-71
2022/10/16 05:46:26;;;;;;;5.10;2.33;;;;;;;11.45;100.00;101211.25;5203328;28;20036;-70
2022/10/16 05:48:59;;;;;;;7.00;2.42;;;;;;;11.44;100.00;101215.75;5202179;28;20113;-71
2022/10/16 05:51:29;;;;;;;5.70;2.60;;;;;;;11.43;100.00;101222.16;5202992;28;20076;-71
2022/10/16 05:54:00;;;;;;;6.43;2.45;;;;;;;11.45;100.00;101212.09;5202783;28;20029;-71
2022/10/16 05:56:30;;;;;;;3.28;2.53;;;;;;;11.44;100.00;101220.31;5202507;28;20494;-71
2022/10/16 05:59:03;;;;;;;8.45;2.50;;;;;;;11.39;100.00;101218.94;5202347;28;20021;-71
2022/10/16 06:01:33;;;;;;;7.85;2.70;;;;;;;11.41;100.00;101219.63;5202910;28;20427;-71
2022/10/16 06:04:04;;;;;;;6.07;2.88;;;;;;;11.42;100.00;101225.84;5202391;28;20026;-71
2022/10/16 06:06:36;;;;;;;11.88;3.40;;;;;;;11.40;100.00;101234.06;5206192;28;20056;-71
2022/10/16 06:09:06;;;;;;;5.70;3.28;;;;;;;11.36;100.00;101238.09;5206020;28;20115;-71
2022/10/16 06:11:37;;;;;;;5.75;2.95;;;;;;;11.41;100.00;101234.91;5206326;28;20021;-71
2022/10/16 06:14:08;;;;;;;7.72;2.67;;;;;;;11.37;100.00;101242.44;5206537;28;20036;-71
2022/10/16 06:16:39;;;;;;;9.32;3.05;;;;;;;11.38;100.00;101237.91;5205876;28;20391;-71
2022/10/16 06:19:09;;;;;;;4.93;2.70;;;;;;;11.37;100.00;101238.91;5205720;28;20037;-71
2022/10/16 06:21:40;;;;;;;7.15;2.97;;;;;;;11.41;100.00;101245.66;5206201;28;20022;-71
2022/10/16 06:24:11;;;;;;;5.55;2.55;;;;;;;11.44;100.00;101237.25;5205964;28;20087;-71
2022/10/16 06:26:41;;;;;;;6.75;2.70;;;;;;;11.52;100.00;101248.03;5206134;28;20032;-71
2022/10/16 06:29:12;;;;;;;4.65;2.30;;;;;;;11.59;100.00;101243.69;5204489;28;20079;-71
2022/10/16 06:31:42;;;;;;;5.45;2.47;;;;;;;11.64;100.00;101260.16;5205460;28;20018;-71
2022/10/16 06:34:13;;;;;;;4.82;2.40;;;;;;;11.73;100.00;101260.19;5205670;28;20091;-71
2022/10/16 06:36:43;;;;;;;4.65;2.80;;;;;;;11.80;100.00;101263.94;5205810;28;20021;-71
2022/10/16 06:39:14;;;;;;;5.47;2.60;;;;;;;11.91;100.00;101274.41;5205265;28;20021;-70
2022/10/16 06:41:45;;;;;;;9.40;2.75;;;;;;;12.04;100.00;101276.59;5205771;28;20487;-71
2022/10/16 06:44:15;;;;;;;8.02;2.70;;;;;;;12.13;100.00;101279.13;5205367;28;20025;-71
2022/10/16 06:46:45;;;;;;;7.63;2.15;;;;;;;12.17;100.00;101275.13;5205304;28;20040;-71
2022/10/16 06:49:21;;;;;;;4.90;2.30;;;;;;;12.20;100.00;101282.03;5205398;28;20033;-71
2022/10/16 06:51:51;;;;;;;;;;;;;;;12.26;100.00;101285.91;5206147;28;20128;-73
2022/10/16 06:54:22;;;;;;;5.75;3.00;;;;;;;12.35;100.00;101295.63;5205536;28;19996;-71
2022/10/16 06:56:54;;;;;;;6.00;2.35;;;;;;;12.46;100.00;101292.63;5204405;28;20033;-71
2022/10/16 06:59:24;;;;;;;12.85;2.53;;;;;;;12.59;100.00;101297.50;5204397;28;20469;-71
2022/10/16 07:01:55;;;;;;;8.82;2.30;;;;;;;12.72;100.00;101302.38;5205423;28;20026;-71
2022/10/16 07:04:25;;;;;;;9.55;2.15;;;;;;;12.90;100.00;101313.78;5205396;28;20439;-71
2022/10/16 07:06:56;;;;;;;5.85;2.05;;;;;;;13.07;100.00;101323.56;5204541;28;20169;-71
2022/10/16 07:09:26;;;;;;;4.60;1.70;;;;;;;13.26;100.00;101321.53;5204829;28;20574;-71
2022/10/16 07:11:57;;;;;;;8.30;2.00;;;;;;;13.33;100.00;101330.59;5205386;28;20414;-71
2022/10/16 07:14:27;;;;;;;3.53;1.88;;;;;;;13.39;100.00;101332.59;5204238;28;20395;-71
2022/10/16 07:16:58;;;;;;;2.85;1.80;;;;;;;13.49;100.00;101346.72;5205943;28;20032;-71
2022/10/16 07:19:28;;;;;;;6.10;2.03;;;;;;;13.67;100.00;101341.09;5205536;28;20021;-71
2022/10/16 07:21:59;;;;;;;4.72;2.22;;;;;;;13.78;100.00;101358.75;5205099;28;20789;-71
2022/10/16 07:24:29;;;;;;;9.60;2.00;;;;;;;14.00;100.00;101349.88;5204843;28;20614;-71
2022/10/16 07:27:00;;;;;;;7.50;2.25;;;;;;;14.29;100.00;101361.88;5204275;28;20079;-71
2022/10/16 07:29:31;;;;;;;5.75;1.75;;;;;;;14.90;100.00;101370.91;5203491;28;20107;-71
2022/10/16 07:32:01;;;;;;;6.63;2.55;;;;;;;15.27;100.00;101364.66;5204551;28;20030;-71
2022/10/16 07:34:32;;;;;;;5.57;1.90;;;;;;;15.84;100.00;101374.84;5204600;28;20417;-71
2022/10/16 07:37:03;;;;;;;6.22;2.22;;;;;;;15.72;100.00;101379.91;5203996;28;20025;-72
2022/10/16 07:39:33;;;;;;;10.27;2.13;;;;;;;15.99;100.00;101372.97;5204583;28;20025;-71
2022/10/16 07:42:04;;;;;;;6.07;2.28;;;;;;;16.47;100.00;101386.03;5204530;28;20022;-72
2022/10/16 07:44:34;;;;;;;12.00;2.20;;;;;;;16.60;100.00;101385.31;5204444;28;20087;-72
2022/10/16 07:47:05;;;;;;;8.85;2.38;;;;;;;16.98;100.00;101389.47;5203809;28;20029;-72
2022/10/16 07:49:35;;;;;;;4.93;1.90;;;;;;;17.15;100.00;101397.31;5203232;28;20104;-71
2022/10/16 07:52:06;;;;;;;6.20;1.88;;;;;;;17.28;100.00;101397.44;5204339;28;20100;-72
2022/10/16 07:54:36;;;;;;;3.67;1.70;;;;;;;17.18;100.00;101405.91;5203549;28;20100;-72
2022/10/16 07:57:07;;;;;;;3.60;1.65;;;;;;;17.28;100.00;101411.00;5203399;28;20027;-71
2022/10/16 07:59:37;;;;;;;5.40;1.77;;;;;;;17.58;100.00;101408.91;5204203;28;20037;-71
2022/10/16 08:02:08;;;;;;;4.80;1.73;;;;;;;17.67;100.00;101407.75;5204289;28;20536;-72
2022/10/16 08:04:38;;;;;;;3.63;1.63;;;;;;;17.71;100.00;101409.00;5204188;28;20100;-72
2022/10/16 08:07:09;;;;;;;2.97;1.48;;;;;;;18.16;100.00;101408.63;5203705;28;20104;-72
2022/10/16 08:09:39;;;;;;;3.55;1.45;;;;;;;18.58;100.00;101410.25;5203481;28;20113;-72
2022/10/16 08:12:10;;;;;;;5.78;1.92;;;;;;;18.50;100.00;101418.56;5204420;28;20362;-71
2022/10/16 08:14:41;;;;;;;5.93;1.95;;;;;;;18.55;100.00;101426.94;5203796;28;20025;-72
2022/10/16 08:17:13;;;;;;;1.95;1.20;;;;;;;18.61;100.00;101434.28;5203474;28;20027;-72
2022/10/16 08:19:47;;;;;;;6.50;1.30;;;;;;;18.57;100.00;101433.00;5203738;28;20546;-72
2022/10/16 08:22:18;;;;;;;6.82;1.75;;;;;;;18.41;100.00;101433.38;5203630;28;20036;-72
2022/10/16 08:24:48;;;;;;;5.07;1.60;;;;;;;18.51;100.00;101441.97;5202413;28;20033;-73
2022/10/16 08:27:19;;;;;;;4.63;1.40;;;;;;;18.61;100.00;101431.56;5202462;28;20391;-72
2022/10/16 08:29:52;;;;;;;4.70;1.48;;;;;;;18.91;100.00;101432.06;5203388;28;20497;-72
2022/10/16 08:32:23;;;;;;;5.65;1.88;;;;;;;19.08;100.00;101425.19;5202353;28;20033;-72
2022/10/16 08:34:53;;;;;;;6.68;1.35;;;;;;;18.84;100.00;101434.78;5203303;28;20029;-72
2022/10/16 08:37:27;;;;;;;3.67;1.42;;;;;;;18.95;100.00;101427.91;5202837;28;20025;-72
2022/10/16 08:39:57;;;;;;;2.95;1.40;;;;;;;19.07;100.00;101433.53;5203483;28;20025;-73
2022/10/16 08:42:54;;;;;;;6.53;1.20;;;;;;;18.84;100.00;101448.38;5203574;28;20372;-73
2022/10/16 08:45:42;;;;;;;4.65;1.60;;;;;;;18.94;100.00;101444.44;5200043;28;20095;-73
2022/10/16 08:48:55;;;;;;;6.03;1.70;;;;;;;19.92;100.00;101443.53;5202878;28;20029;-73
2022/10/16 08:51:35;;;;;;;9.88;1.60;;;;;;;20.11;100.00;101449.16;5194159;28;20034;-72
2022/10/16 08:54:17;;;;;;;4.07;1.25;;;;;;;19.99;100.00;101450.88;5203248;28;20057;-72
2022/10/16 08:56:48;;;;;;;3.80;1.10;;;;;;;20.65;100.00;101456.91;5202977;28;20479;-73
2022/10/16 08:59:19;;;;;;;5.18;1.63;;;;;;;20.91;100.00;101461.38;5203194;28;20013;-72
2022/10/16 09:01:51;;;;;;;4.82;1.60;;;;;;;21.33;100.00;101456.25;5202848;28;20026;-72
2022/10/16 09:04:40;;;;;;;6.05;1.40;;;;;;;21.23;100.00;101471.41;5203528;28;20160;-72
2022/10/16 09:07:25;;;;;;;6.18;1.42;;;;;;;21.58;100.00;101463.59;5202651;28;20040;-72
2022/10/16 09:10:04;;;;;;;4.97;1.80;;;;;;;21.89;100.00;101466.25;5203064;28;20075;-72
2022/10/16 09:12:51;;;;;;;7.55;1.85;;;;;;;21.61;100.00;101472.19;5203290;28;20032;-72
2022/10/16 09:15:46;;;;;;;4.78;1.30;;;;;;;21.39;100.00;101481.84;5202157;28;20025;-72
2022/10/16 09:18:17;;;;;;;5.65;1.38;;;;;;;20.92;100.00;101475.84;5202340;28;20029;-72
2022/10/16 09:21:15;;;;;;;5.35;1.33;;;;;;;21.11;100.00;101474.03;5203084;28;20034;-72
2022/10/16 09:23:47;;;;;;;7.35;1.73;;;;;;;20.98;100.00;101466.78;5193247;28;20104;-72
2022/10/16 09:26:19;;;;;;;9.98;1.90;;;;;;;20.16;100.00;101473.84;5202321;28;20384;-72
2022/10/16 09:28:53;;;;;;;5.22;1.50;;;;;;;20.66;100.00;101468.66;5202051;28;20040;-72
2022/10/16 09:31:23;;;;;;;6.50;1.58;;;;;;;20.92;100.00;101479.41;5202696;28;20031;-72
2022/10/16 09:33:58;;;;;;;5.25;1.48;;;;;;;21.71;100.00;101483.44;5203185;28;20708;-72
2022/10/16 09:36:32;;;;;;;8.48;1.65;;;;;;;21.72;100.00;101479.63;5203301;28;20542;-72
2022/10/16 09:39:11;;;;;;;5.28;1.63;;;;;;;21.50;100.00;101480.28;5203598;28;20080;-72
2022/10/16 09:41:45;;;;;;;10.82;1.73;;;;;;;21.50;100.00;101485.75;5205962;28;20021;-72
2022/10/16 09:44:24;;;;;;;7.53;1.40;;;;;;;21.77;100.00;101486.31;5206627;28;20021;-72
2022/10/16 09:47:13;;;;;;;4.47;1.67;;;;;;;21.81;100.00;101487.56;5206119;28;20029;-72
2022/10/16 09:49:56;;;;;;;3.78;1.15;;;;;;;22.03;100.00;101488.78;5206400;28;20554;-72
2022/10/16 09:52:26;;;;;;;9.10;1.42;;;;;;;21.45;100.00;101491.88;5205400;28;20025;-72
2022/10/16 09:54:58;;;;;;;7.57;1.42;;;;;;;21.36;100.00;101490.47;5206787;28;20372;-72
2022/10/16 09:57:29;;;;;;;10.95;1.40;;;;;;;21.22;100.00;101495.16;5206242;28;20372;-72
2022/10/16 10:00:08;;;;;;;8.73;1.85;;;;;;;21.08;100.00;101496.28;5206187;28;20029;-72
2022/10/16 10:02:39;;;;;;;9.73;1.58;;;;;;;19.96;100.00;101494.88;5206795;28;20656;-73
2022/10/16 10:05:29;;;;;;;8.88;2.00;;;;;;;19.33;100.00;101496.13;5206382;28;20029;-72
2022/10/16 10:08:08;;;;;;;6.40;1.40;;;;;;;19.18;100.00;101492.78;5205657;28;20021;-73
2022/10/16 10:10:42;;;;;;;9.35;1.88;;;;;;;19.13;100.00;101492.56;5205927;28;20119;-72
2022/10/16 10:13:21;;;;;;;5.07;1.23;;;;;;;18.89;100.00;101502.13;5206237;28;20112;-72
2022/10/16 10:15:53;;;;;;;5.88;1.27;;;;;;;18.94;100.00;101507.78;5206284;28;20029;-72
2022/10/16 10:18:24;;;;;;;6.28;1.20;;;;;;;18.93;100.00;101505.28;5205557;28;20040;-71
2022/10/16 10:21:02;;;;;;;7.38;1.40;;;;;;;19.30;100.00;101504.72;5205760;28;20029;-72
2022/10/16 10:23:33;;;;;;;10.35;1.80;;;;;;;19.72;100.00;101510.81;5206086;28;20032;-73
2022/10/16 10:26:03;;;;;;;7.82;1.50;;;;;;;19.82;100.00;101503.03;5206120;28;20025;-72
2022/10/16 10:28:52;;;;;;;4.32;1.13;;;;;;;19.76;100.00;101512.06;5204072;28;20029;-72
2022/10/16 10:31:42;;;;;;;6.40;1.40;;;;;;;19.12;100.00;101509.91;5196210;28;20060;-72
2022/10/16 10:34:34;;;;;;;7.57;1.73;;;;;;;18.76;100.00;101515.66;5206092;28;20032;-73
2022/10/16 10:37:41;;;;;;;11.15;1.40;;;;;;;18.53;100.00;101518.69;5205094;28;20025;-72
2022/10/16 10:40:16;;;;;;;6.55;1.50;;;;;;;18.41;100.00;101512.16;5205619;28;20021;-72
2022/10/16 10:42:57;;;;;;;4.07;1.73;;;;;;;18.23;100.00;101504.56;5205827;28;20039;-72
2022/10/16 10:45:40;;;;;;;11.57;1.88;;;;;;;18.04;100.00;101500.69;5205652;28;20025;-72
2022/10/16 10:48:21;;;;;;;5.70;1.25;;;;;;;17.89;100.00;101508.09;5204757;28;20029;-72
2022/10/16 10:51:06;;;;;;;7.68;1.95;;;;;;;17.79;100.00;101511.16;5206991;28;20502;-72
2022/10/16 10:53:55;;;;;;;6.55;1.65;;;;;;;17.79;100.00;101512.00;5205525;28;20026;-72
2022/10/16 10:56:28;;;;;;;6.03;1.42;;;;;;;17.81;100.00;101512.63;5205185;28;20522;-72
2022/10/16 10:59:15;;;;;;;9.77;1.70;;;;;;;17.88;100.00;101506.44;5205018;28;20052;-72
2022/10/16 11:02:18;;;;;;;12.43;1.95;;;;;;;18.20;100.00;101515.81;5205526;28;20499;-75
2022/10/16 11:05:10;;;;;;;7.32;1.20;;;;;;;19.02;100.00;101515.75;5204871;28;20033;-72
2022/10/16 11:07:58;;;;;;;3.05;1.08;;;;;;;19.16;100.00;101522.03;5203617;28;20033;-72
2022/10/16 11:10:40;;;;;;;5.47;1.17;;;;;;;19.17;100.00;101518.28;5193474;28;20029;-72
2022/10/16 11:13:24;;;;;;;10.10;1.80;;;;;;;19.54;100.00;101518.75;5205024;28;20025;-73
2022/10/16 11:16:00;;;;;;;4.93;1.00;;;;;;;19.83;100.00;101515.63;5205203;28;20033;-72
2022/10/16 11:18:39;;;;;;;4.95;1.23;;;;;;;20.28;100.00;101509.44;5204601;28;20033;-72
2022/10/16 11:21:15;;;;;;;6.20;1.48;;;;;;;20.18;100.00;101518.91;5205116;28;20032;-72
2022/10/16 11:23:57;;;;;;;4.88;1.25;;;;;;;20.18;100.00;101518.06;5205104;28;20033;-72
2022/10/16 11:26:34;;;;;;;6.85;1.27;;;;;;;20.20;100.00;101506.97;5203859;28;20112;-72
2022/10/16 11:29:13;;;;;;;7.88;1.70;;;;;;;20.61;100.00;101515.66;5203468;28;20068;-73
2022/10/16 11:31:49;;;;;;;7.63;1.42;;;;;;;20.71;100.00;101512.47;5203460;28;20387;-73
2022/10/16 11:34:31;;;;;;;8.48;1.50;;;;;;;20.82;100.00;101519.94;5188067;28;20032;-72
2022/10/16 11:37:14;;;;;;;5.43;0.90;;;;;;;20.66;100.00;101518.56;5183592;28;20032;-73
2022/10/16 11:39:46;;;;;;;4.88;1.38;;;;;;;20.87;100.00;101511.94;5189690;28;20014;-73
2022/10/16 11:42:23;;;;;;;6.75;1.60;;;;;;;20.48;100.00;101510.22;5187907;28;20503;-73
2022/10/16 11:45:08;;;;;;;3.22;1.17;;;;;;;20.57;100.00;101508.13;5193886;28;20036;-73
2022/10/16 11:47:44;;;;;;;5.72;1.13;;;;;;;20.35;100.00;101508.38;5196737;28;20494;-73
2022/10/16 11:50:43;;;;;;;8.15;1.52;;;;;;;20.28;100.00;101499.41;5183734;28;20026;-73